Durango, CO (81301)

5:22 PM MDT on September 02, 2015 (GMT -0600)
Edgemont Highlands | | Change Station
CLOSE
Current Station
Personal Weather Station
Location: Durango, CO
Elevation: 7484 ft
Nearby Weather Stations

Elev 7484 ft 37.31 °N, 107.79 °W | Updated 19 seconds ago

Mostly Cloudy
Mostly Cloudy
69.2 °F
Feels Like 69.2 °F
N
1.0
Wind Variable Wind from WSW
Gusts 2.0 mph

Today
High -- | Low -- °F
--% Chance of Precip.
Yesterday
High -- | Low -- °F
Precip. -- in
6:42 AM 7:38 PM
Waning Gibbous, 76% visible
Pressure 30.19 in
Visibility 10.0 miles
Clouds Few 7500 ft
Dew Point 51 °F
Humidity 53%
Rainfall 0.11 in
Snow Depth Not available.
UV 3 out of 12
Pollen 8.60 out of 12
Air Quality Not available.
Flu Activity Not available.
SPECI KDRO 022303Z AUTO 26011KT 10SM VCTS FEW075 26/07 A3019 RMK AO2 LTG DSNT NE AND E TSE2257 T02560072
Pressure 30.19 in
Visibility 10.0 miles
Clouds Few 7500 ft
Dew Point 51 °F
Humidity 53%
Rainfall 0.11 in
Snow Depth Not available.
UV 3 out of 12
Pollen 8.60 out of 12
Air Quality Not available.
Flu Activity Not available.
SPECI KDRO 022303Z AUTO 26011KT 10SM VCTS FEW075 26/07 A3019 RMK AO2 LTG DSNT NE AND E TSE2257 T02560072

10-Day Weather Forecast

×

Almanac

Astronomy

Sep. 02, 2015 Rise Set
Actual Time
Civil Twilight
Nautical Twilight
Astronomical Twilight
Moon
Length of Visible Light
Length of Day
Tomorrow will be .
, % of the Moon is Illuminated

Today's Extremes

State Highs State Lows

Community

WunderPhotos

Upload Photos

1,851,826 photos uploaded!

WunderBlogs® & News

Nearby

Air Quality

  Air Quality AQ Index Pollutant
Not available.

Snow Depth

Station Depth Elevation

Earthquake Activity

City Distance Mag. Time & Date
Minimum magnitude displayed is 2.5.

Coastal Water Temperatures

Place Temperature

Stations

Nearby Weather Stations

Station Location Temp. Windchill Dew Point Humidity Wind Precip. Elev Updated Type